Belfair, Washington
Current Conditions -  °F | °C
As of 8:55 PM on Saturday 25 Oct 2014 (Local Time) from KPWT Reporting Station
Broken Clouds Broken Clouds  
Wind Chill: 52°   Ceiling: 10000
Heat Index: 52°   Visibility: 10mi
Dew Point: 46°   Wind: 35mph
Humidity: 82%   Direction: 200°SSW
Pressure: 29.51"   Gusts: 47mph
Location:  47.45°N, 122.83°W
Report Text: KPWT 260355Z AUTO 20030G41KT 10SM BKN100 11/08 A2951 RMK AO1
Loading
Personal Weather Stations






























Interactive Weather Map
Tropical Storm Tracking
New forecast layout! Learn more

10-Day Weather Forecast

Advertisements
Track Severe Weather on mobile